Terminal Aerodrome Forecast
Issued by NWS Wakefield, VA

Home | Current Version | Previous Version | Text Only | Print | Product List | Glossary On
Versions: 1 2 3 4 5 6 7 8 9 10 11 12
410
FTUS41 KAKQ 261740
TAFRIC
TAF
KRIC 261740Z 2618/2718 22009KT P6SM SCT050
     FM262300 19006KT P6SM SCT050=

USA.gov is the U.S. government's official web portal to all federal, state and local government web resources and services.